Evelyn Sharp Field


Codes: KODX/
Name: Evelyn Sharp Field
City: Ord
Country: United States
Elevation: 2070 ft.

Photos at Evelyn Sharp Field


   Photos courtesy of SpottingLog. You can add your own sightings and photos by signing up for a free trial today.



No photos found.

Weather at Evelyn Sharp Field


Time (UTC)DescriptionTempratureWindCloud coverageVisibilityPressureHumidity
17-Jun-2024 06:00Moderate Rain22°C16 mph, N0%0m1005hPa73%
17-Jun-2024 09:00Moderate Rain22°C11 mph, E33%10000m1004hPa81%
17-Jun-2024 12:00Light Rain22°C9 mph, SE59%10000m1002hPa85%
17-Jun-2024 15:00Light Rain25°C13 mph, SE86%10000m1001hPa79%
17-Jun-2024 18:00Light Rain29°C20 mph, S93%10000m999hPa62%
17-Jun-2024 21:00Overcast Clouds33°C18 mph, S89%10000m996hPa54%
18-Jun-2024 00:00Broken Clouds31°C22 mph, S57%10000m995hPa52%
18-Jun-2024 03:00Light Rain25°C7 mph, W68%10000m998hPa64%
18-Jun-2024 06:00Moderate Rain24°C20 mph, SE84%10000m998hPa70%
18-Jun-2024 09:00Scattered Clouds25°C27 mph, S44%10000m996hPa64%
18-Jun-2024 12:00Few Clouds24°C22 mph, S23%10000m999hPa76%
18-Jun-2024 15:00Light Rain22°C11 mph, NW32%10000m1002hPa82%
18-Jun-2024 18:00Light Rain21°C11 mph, NW66%10000m1005hPa79%
18-Jun-2024 21:00Light Rain19°C13 mph, N100%10000m1008hPa82%
19-Jun-2024 00:00Light Rain21°C16 mph, NE97%10000m1008hPa73%
19-Jun-2024 03:00Light Rain18°C16 mph, N95%10000m1014hPa67%
19-Jun-2024 06:00Overcast Clouds17°C11 mph, NE97%10000m1017hPa64%
19-Jun-2024 09:00Light Rain15°C11 mph, NE100%10000m1019hPa74%
19-Jun-2024 12:00Light Rain13°C9 mph, NE100%10000m1022hPa85%
19-Jun-2024 15:00Light Rain13°C11 mph, NE100%10000m1023hPa82%
19-Jun-2024 18:00Light Rain13°C11 mph, NE100%10000m1024hPa86%
19-Jun-2024 21:00Light Rain13°C9 mph, NE100%10000m1024hPa91%
20-Jun-2024 00:00Light Rain13°C11 mph, NE100%10000m1022hPa96%
20-Jun-2024 03:00Light Rain14°C9 mph, E100%10000m1023hPa98%
20-Jun-2024 06:00Light Rain14°C7 mph, SE100%203m1024hPa99%
20-Jun-2024 09:00Light Rain16°C9 mph, SE100%94m1022hPa99%
20-Jun-2024 12:00Light Rain17°C7 mph, SE100%58m1021hPa99%
20-Jun-2024 15:00Overcast Clouds21°C13 mph, S100%10000m1021hPa90%
20-Jun-2024 18:00Overcast Clouds25°C16 mph, S99%10000m1020hPa71%
20-Jun-2024 21:00Overcast Clouds27°C16 mph, S89%10000m1018hPa64%
21-Jun-2024 00:00Broken Clouds25°C18 mph, S73%10000m1017hPa70%
21-Jun-2024 03:00Scattered Clouds20°C9 mph, S33%10000m1019hPa87%
21-Jun-2024 06:00Few Clouds19°C11 mph, S21%10000m1020hPa87%
21-Jun-2024 09:00Clear Sky19°C13 mph, S0%10000m1018hPa93%
21-Jun-2024 12:00Clear Sky19°C16 mph, S2%10000m1018hPa93%
21-Jun-2024 15:00Clear Sky23°C20 mph, S6%10000m1017hPa72%
21-Jun-2024 18:00Few Clouds26°C22 mph, S20%10000m1015hPa63%
21-Jun-2024 21:00Overcast Clouds24°C18 mph, S99%10000m1014hPa75%
22-Jun-2024 00:00Light Rain23°C18 mph, S88%10000m1012hPa79%
22-Jun-2024 03:00Broken Clouds21°C20 mph, S80%10000m1012hPa82%